Time;durP1;ratioP1;P1;durP2;ratioP2;P2;SDS_P1;SDS_P2;PMS_P1;PMS_P2;Temp;Humidity;BMP_temperature;BMP_pressure;BME280_temperature;BME280_humidity;BME280_pressure;Samples;Min_cycle;Max_cycle;Signal;HPM_P1;HPM_P2
2022/01/26 00:07:51;;;;;;;39.93;21.73;;;3.80;99.90;;;;;;5021027;28;20270;-67
2022/01/26 00:10:17;;;;;;;45.20;22.80;;;3.80;99.90;;;;;;5032139;28;20662;-67
2022/01/26 00:12:42;;;;;;;38.80;23.10;;;3.80;99.90;;;;;;5023971;28;20290;-67
2022/01/26 00:15:10;;;;;;;41.90;23.10;;;3.80;99.90;;;;;;5012405;28;20238;-66
2022/01/26 00:17:35;;;;;;;38.97;23.10;;;3.80;99.90;;;;;;5028532;28;20172;-67
2022/01/26 00:20:12;;;;;;;44.70;23.07;;;3.80;99.90;;;;;;5012492;28;20172;-68
2022/01/26 00:38:47;;;;;;;46.60;23.40;;;3.50;99.90;;;;;;5013235;28;20695;-66
2022/01/26 00:41:18;;;;;;;43.20;25.60;;;3.50;99.90;;;;;;5027282;28;20192;-66
2022/01/26 00:43:52;;;;;;;42.87;24.83;;;3.40;99.90;;;;;;5023172;28;20540;-66
2022/01/26 00:46:19;;;;;;;45.00;25.17;;;3.40;99.90;;;;;;5031629;28;20175;-66
2022/01/26 00:48:45;;;;;;;41.60;23.47;;;3.40;99.90;;;;;;5021207;28;20247;-66
2022/01/26 00:51:15;;;;;;;46.13;24.17;;;3.40;99.90;;;;;;5011808;28;20672;-66
2022/01/26 00:53:45;;;;;;;46.20;23.47;;;3.40;99.90;;;;;;5012441;28;20180;-66
2022/01/26 00:56:12;;;;;;;47.73;22.63;;;3.40;99.90;;;;;;5011750;28;20195;-66
2022/01/26 00:58:37;;;;;;;49.70;25.60;;;3.40;99.90;;;;;;5012601;28;20291;-66
2022/01/26 01:01:04;;;;;;;43.50;25.80;;;3.50;99.90;;;;;;5012936;28;20254;-66
2022/01/26 01:03:33;;;;;;;47.30;24.53;;;3.50;99.90;;;;;;5018988;28;20240;-66
2022/01/26 01:08:30;;;;;;;47.43;25.10;;;3.50;99.90;;;;;;5019208;28;20180;-66
2022/01/26 01:10:56;;;;;;;45.30;24.90;;;3.50;99.90;;;;;;5018141;28;20767;-66
2022/01/26 01:13:32;;;;;;;46.37;24.80;;;3.60;99.90;;;;;;5022248;28;20179;-66
2022/01/26 01:15:58;;;;;;;41.03;23.37;;;3.60;99.90;;;;;;5037705;28;20253;-66
2022/01/26 01:18:32;;;;;;;42.73;24.97;;;3.60;99.90;;;;;;5036324;28;20175;-66
2022/01/26 01:34:11;;;;;;;49.27;25.83;;;3.60;99.90;;;;;;5037686;28;20179;-66
2022/01/26 01:36:39;;;;;;;48.83;25.40;;;3.60;99.90;;;;;;5035816;28;20889;-66
2022/01/26 01:39:07;;;;;;;55.40;26.20;;;3.60;99.90;;;;;;5037678;28;20225;-66
2022/01/26 01:41:38;;;;;;;51.00;26.90;;;3.50;99.90;;;;;;5036069;28;20606;-66
2022/01/26 01:44:04;;;;;;;54.43;26.30;;;3.50;99.90;;;;;;5034204;28;20543;-66
2022/01/26 01:46:30;;;;;;;49.30;25.77;;;3.60;99.90;;;;;;5037490;28;20175;-66
2022/01/26 01:48:56;;;;;;;52.27;26.83;;;3.60;99.90;;;;;;5037600;28;20545;-66
2022/01/26 01:51:29;;;;;;;48.40;25.20;;;3.60;99.90;;;;;;5037746;28;20199;-66
2022/01/26 01:53:55;;;;;;;47.50;25.90;;;3.50;99.90;;;;;;5032312;28;20184;-66
2022/01/26 01:56:24;;;;;;;52.30;26.47;;;3.50;99.90;;;;;;5017672;28;20214;-66
2022/01/26 01:58:49;;;;;;;45.70;26.03;;;3.50;99.90;;;;;;5018005;28;20180;-66
2022/01/26 02:01:15;;;;;;;57.30;28.70;;;3.40;99.90;;;;;;5016527;28;20723;-66
2022/01/26 02:03:41;;;;;;;47.63;25.90;;;3.50;99.90;;;;;;5031248;28;20659;-66
2022/01/26 02:06:07;;;;;;;47.47;24.63;;;3.60;99.90;;;;;;5052918;28;20171;-66
2022/01/26 02:08:33;;;;;;;49.27;25.47;;;3.60;99.90;;;;;;5023310;28;20255;-66
2022/01/26 02:10:59;;;;;;;55.17;27.60;;;3.70;99.90;;;;;;5024680;28;20218;-66
2022/01/26 02:13:33;;;;;;;54.37;26.03;;;3.70;99.90;;;;;;5034204;28;20266;-66
2022/01/26 02:18:52;;;;;;;57.97;28.50;;;3.70;99.90;;;;;;5014360;28;20169;-66
2022/01/26 02:57:27;;;;;;;64.57;28.80;;;3.70;99.90;;;;;;5013792;28;20204;-65
2022/01/26 03:00:17;;;;;;;60.23;28.30;;;3.70;99.90;;;;;;5025063;28;20180;-65
2022/01/26 03:05:05;;;;;;;70.07;30.70;;;3.80;99.90;;;;;;5020924;28;20266;-65
2022/01/26 03:10:12;;;;;;;66.60;29.93;;;3.80;99.90;;;;;;5033569;28;20171;-65
2022/01/26 03:12:47;;;;;;;66.97;30.73;;;3.80;99.90;;;;;;5038631;28;20290;-65
2022/01/26 03:15:28;;;;;;;59.53;28.70;;;3.80;99.90;;;;;;5033291;28;20660;-65
2022/01/26 03:20:22;;;;;;;63.83;30.40;;;3.70;99.90;;;;;;5033205;28;20625;-65
2022/01/26 03:28:22;;;;;;;61.10;29.03;;;3.60;99.90;;;;;;5027004;28;20194;-65
2022/01/26 03:36:02;;;;;;;63.83;29.43;;;3.50;99.90;;;;;;5014194;28;20206;-65
2022/01/26 03:38:41;;;;;;;59.30;27.53;;;3.60;99.90;;;;;;5011545;28;20265;-65
2022/01/26 03:41:33;;;;;;;55.43;28.10;;;3.60;99.90;;;;;;5015083;28;20244;-65
2022/01/26 03:43:53;;;;;;;66.83;28.03;;;3.60;99.90;;;;;;5032818;28;20187;-65
2022/01/26 03:46:19;;;;;;;54.57;27.90;;;3.60;99.90;;;;;;5017937;28;20188;-65
2022/01/26 03:48:44;;;;;;;59.60;27.57;;;3.60;99.90;;;;;;5012655;28;20643;-65
2022/01/26 03:51:10;;;;;;;57.03;28.83;;;3.60;99.90;;;;;;5025197;28;20206;-65
2022/01/26 03:53:36;;;;;;;57.17;27.33;;;3.60;99.90;;;;;;5032084;28;20695;-66
2022/01/26 03:56:01;;;;;;;63.70;28.23;;;3.60;99.90;;;;;;5021407;28;20238;-66
2022/01/26 03:58:27;;;;;;;50.43;25.53;;;3.60;99.90;;;;;;5012495;28;20164;-66
2022/01/26 04:00:53;;;;;;;62.17;28.33;;;3.60;99.90;;;;;;5013561;28;20187;-66
2022/01/26 04:03:19;;;;;;;56.87;26.27;;;3.60;99.90;;;;;;5012326;28;20173;-66
2022/01/26 04:05:44;;;;;;;59.20;28.23;;;3.60;99.90;;;;;;5013587;28;20179;-65
2022/01/26 04:08:16;;;;;;;62.37;29.87;;;3.50;99.90;;;;;;5012546;28;20645;-66
2022/01/26 04:13:08;;;;;;;58.97;30.73;;;3.50;99.90;;;;;;5032338;28;20399;-65
2022/01/26 04:15:35;;;;;;;67.60;29.57;;;3.40;99.90;;;;;;5026881;28;20203;-65
2022/01/26 04:18:05;;;;;;;58.13;28.23;;;3.40;99.90;;;;;;5012457;28;20160;-65
2022/01/26 04:20:36;;;;;;;65.60;31.20;;;3.30;99.90;;;;;;5015854;28;20176;-66
2022/01/26 04:23:16;;;;;;;65.03;32.80;;;3.20;99.90;;;;;;5031693;28;20183;-65
2022/01/26 04:25:45;;;;;;;69.70;30.20;;;3.20;99.90;;;;;;5026745;28;20176;-65
2022/01/26 04:28:16;;;;;;;64.90;30.23;;;3.20;99.90;;;;;;5012210;28;20207;-65
2022/01/26 04:30:42;;;;;;;70.00;33.73;;;3.20;99.90;;;;;;5013221;28;20550;-65
2022/01/26 04:33:08;;;;;;;67.73;30.60;;;3.10;99.90;;;;;;5011184;28;20278;-65
2022/01/26 04:35:35;;;;;;;71.13;31.37;;;3.10;99.90;;;;;;5028812;28;20200;-65
2022/01/26 04:40:36;;;;;;;63.60;31.27;;;3.10;99.90;;;;;;5015046;28;20180;-65
2022/01/26 04:43:07;;;;;;;67.67;31.17;;;3.10;99.90;;;;;;5011569;28;20554;-65
2022/01/26 04:45:32;;;;;;;70.30;29.97;;;3.10;99.90;;;;;;5040226;28;20270;-65
2022/01/26 04:47:58;;;;;;;67.73;31.87;;;3.10;99.90;;;;;;5046920;28;20206;-65
2022/01/26 04:50:24;;;;;;;63.17;30.57;;;3.10;99.90;;;;;;5017211;28;20191;-65
2022/01/26 04:52:49;;;;;;;64.30;29.83;;;3.10;99.90;;;;;;5010153;28;20291;-65
2022/01/26 04:55:15;;;;;;;60.83;30.23;;;3.10;99.90;;;;;;5012937;28;20294;-66
2022/01/26 04:57:41;;;;;;;70.73;28.17;;;3.10;99.90;;;;;;5010449;28;20545;-66
2022/01/26 05:00:08;;;;;;;66.23;33.03;;;3.10;99.90;;;;;;5022605;28;20206;-65
2022/01/26 05:02:34;;;;;;;64.80;32.77;;;3.20;99.90;;;;;;5030889;28;20183;-65
2022/01/26 05:04:59;;;;;;;61.50;31.27;;;3.10;99.90;;;;;;5021755;28;20172;-65
2022/01/26 05:07:25;;;;;;;65.43;31.00;;;3.20;99.90;;;;;;5011733;28;20230;-65
2022/01/26 05:09:51;;;;;;;67.23;30.70;;;3.20;99.90;;;;;;5012663;28;20539;-65
2022/01/26 05:12:17;;;;;;;65.60;32.07;;;3.20;99.90;;;;;;5011229;28;20243;-65
2022/01/26 05:14:45;;;;;;;68.23;31.77;;;3.20;99.90;;;;;;5012368;28;20176;-65
2022/01/26 05:17:13;;;;;;;70.97;31.23;;;3.30;99.90;;;;;;5011715;28;20176;-65
2022/01/26 05:19:38;;;;;;;75.97;34.47;;;3.20;99.90;;;;;;5016229;28;20183;-65
2022/01/26 05:22:05;;;;;;;70.30;31.23;;;3.20;99.90;;;;;;5029760;28;20195;-65
2022/01/26 05:24:31;;;;;;;72.43;32.20;;;3.20;99.90;;;;;;5013073;28;20646;-65
2022/01/26 05:26:56;;;;;;;73.20;33.17;;;3.20;99.90;;;;;;5011889;28;20242;-65
2022/01/26 05:29:22;;;;;;;79.50;34.70;;;3.20;99.90;;;;;;5012554;28;20191;-65
2022/01/26 05:31:48;;;;;;;67.00;31.93;;;3.10;99.90;;;;;;5010075;28;20211;-65
2022/01/26 05:34:14;;;;;;;80.67;32.47;;;3.20;99.90;;;;;;5024453;28;20706;-65
2022/01/26 05:36:39;;;;;;;76.27;34.00;;;3.20;99.90;;;;;;5030787;28;20207;-65
2022/01/26 05:39:05;;;;;;;72.47;33.13;;;3.20;99.90;;;;;;5018561;28;20641;-65
2022/01/26 05:41:31;;;;;;;69.87;32.23;;;3.10;99.90;;;;;;5026525;28;20200;-65
2022/01/26 05:43:56;;;;;;;68.10;29.37;;;3.20;99.90;;;;;;5021563;28;20597;-65
2022/01/26 05:46:33;;;;;;;57.60;27.67;;;3.10;99.90;;;;;;5031221;28;20218;-65
2022/01/26 05:48:58;;;;;;;69.33;31.07;;;3.10;99.90;;;;;;5023610;28;20190;-65
2022/01/26 05:51:26;;;;;;;73.53;31.90;;;3.00;99.90;;;;;;5022274;28;20566;-65
2022/01/26 05:53:52;;;;;;;74.53;33.00;;;3.00;99.90;;;;;;5034528;28;20554;-65
2022/01/26 05:56:17;;;;;;;76.90;32.47;;;2.90;99.90;;;;;;5033018;28;20207;-65
2022/01/26 05:58:43;;;;;;;74.00;32.67;;;2.80;99.90;;;;;;5033018;28;20179;-65
2022/01/26 06:01:11;;;;;;;79.00;32.97;;;2.80;99.90;;;;;;5017246;28;20238;-65
2022/01/26 06:03:37;;;;;;;80.07;31.80;;;2.70;99.90;;;;;;5014466;28;20164;-67
2022/01/26 06:06:03;;;;;;;71.40;32.70;;;2.70;99.90;;;;;;5041844;28;20187;-65
2022/01/26 06:08:29;;;;;;;82.87;34.73;;;2.70;99.90;;;;;;5034411;28;20253;-65
2022/01/26 06:10:59;;;;;;;71.40;31.23;;;2.70;99.90;;;;;;5019889;28;20262;-65
2022/01/26 06:13:25;;;;;;;74.17;34.47;;;2.70;99.90;;;;;;5014419;28;20176;-65
2022/01/26 06:15:51;;;;;;;75.87;31.63;;;2.70;99.90;;;;;;5027187;28;20214;-65
2022/01/26 06:18:17;;;;;;;70.57;31.33;;;2.80;99.90;;;;;;5033086;28;20615;-65
2022/01/26 06:20:43;;;;;;;67.30;32.43;;;2.80;99.90;;;;;;5016771;28;20271;-65
2022/01/26 06:23:08;;;;;;;85.37;32.30;;;2.80;99.90;;;;;;5029163;28;20200;-65
2022/01/26 06:25:34;;;;;;;87.37;34.73;;;2.80;99.90;;;;;;5015267;28;20210;-65
2022/01/26 06:28:05;;;;;;;71.47;32.63;;;2.80;99.90;;;;;;5014412;28;20191;-65
2022/01/26 06:30:31;;;;;;;74.17;33.30;;;2.80;99.90;;;;;;5015596;28;20186;-65
2022/01/26 06:32:56;;;;;;;78.40;31.97;;;2.80;99.90;;;;;;5015301;28;20282;-65
2022/01/26 06:35:23;;;;;;;74.43;33.57;;;2.80;99.90;;;;;;5014160;28;20563;-65
2022/01/26 06:37:49;;;;;;;73.80;30.87;;;2.80;99.90;;;;;;5025131;28;20179;-65
2022/01/26 06:40:14;;;;;;;75.23;33.40;;;2.90;99.90;;;;;;5033841;28;20179;-65
2022/01/26 06:43:02;;;;;;;78.77;36.57;;;2.80;99.90;;;;;;5014723;28;20204;-65
2022/01/26 06:45:32;;;;;;;83.33;33.97;;;2.80;99.90;;;;;;5014287;28;20180;-65
2022/01/26 06:50:23;;;;;;;83.67;33.97;;;2.90;99.90;;;;;;5033666;28;20226;-65
2022/01/26 06:52:49;;;;;;;80.73;33.47;;;2.90;99.90;;;;;;5014540;28;20246;-65
2022/01/26 06:55:16;;;;;;;77.33;35.03;;;2.90;99.90;;;;;;5013861;28;20674;-65
2022/01/26 06:57:42;;;;;;;68.23;34.70;;;2.90;99.90;;;;;;5014845;28;20176;-65
2022/01/26 07:00:09;;;;;;;77.67;33.40;;;2.90;99.90;;;;;;5020485;28;20225;-65
2022/01/26 07:02:39;;;;;;;64.67;30.50;;;2.80;99.90;;;;;;5032702;28;20195;-65
2022/01/26 07:05:05;;;;;;;60.40;29.53;;;2.80;99.90;;;;;;5048045;28;20176;-66
2022/01/26 07:07:31;;;;;;;78.43;33.53;;;2.90;99.90;;;;;;5030348;28;20206;-65
2022/01/26 07:09:57;;;;;;;78.27;31.37;;;2.80;99.90;;;;;;5032318;28;20179;-65
2022/01/26 07:12:22;;;;;;;72.40;32.40;;;2.80;99.90;;;;;;5032709;28;20574;-65
2022/01/26 07:21:14;;;;;;;77.67;31.20;;;2.70;99.90;;;;;;5031571;28;20198;-65
2022/01/26 07:23:14;;;;;;;86.87;33.87;;;2.70;99.90;;;;;;5032561;28;20175;-65
2022/01/26 07:25:40;;;;;;;76.20;31.87;;;2.80;99.90;;;;;;5016162;28;20188;-65
2022/01/26 07:28:05;;;;;;;77.00;32.70;;;2.80;99.90;;;;;;5013115;28;20180;-65
2022/01/26 07:30:35;;;;;;;79.87;32.40;;;2.80;99.90;;;;;;5014025;28;20267;-66
2022/01/26 07:33:01;;;;;;;86.30;34.77;;;2.70;99.90;;;;;;5010657;28;20702;-65
2022/01/26 07:35:26;;;;;;;72.83;32.30;;;2.70;99.90;;;;;;5027377;28;20203;-65
2022/01/26 07:37:56;;;;;;;83.20;34.90;;;2.70;99.90;;;;;;5032618;28;20221;-65
2022/01/26 07:40:22;;;;;;;68.07;32.17;;;2.70;99.90;;;;;;5032529;28;20248;-65
2022/01/26 07:42:48;;;;;;;81.63;33.93;;;2.80;99.90;;;;;;5031914;28;20187;-65
2022/01/26 07:45:13;;;;;;;76.40;32.53;;;2.80;99.90;;;;;;5020832;28;20291;-65
2022/01/26 07:47:39;;;;;;;80.13;33.77;;;2.90;99.90;;;;;;5012664;28;20225;-65
2022/01/26 07:50:10;;;;;;;71.30;29.57;;;2.90;99.90;;;;;;5022685;28;20274;-65
2022/01/26 07:52:40;;;;;;;72.70;31.90;;;2.90;99.90;;;;;;5027342;28;20200;-65
2022/01/26 07:55:08;;;;;;;79.63;31.77;;;2.90;99.90;;;;;;5012752;28;20164;-65
2022/01/26 07:57:34;;;;;;;82.47;36.10;;;2.90;99.90;;;;;;5013573;28;20176;-65
2022/01/26 08:00:00;;;;;;;87.03;31.17;;;3.00;99.90;;;;;;5012475;28;20172;-64
2022/01/26 08:02:26;;;;;;;77.03;30.20;;;3.10;99.90;;;;;;5014800;28;20246;-65
2022/01/26 08:04:51;;;;;;;77.60;32.50;;;3.10;99.90;;;;;;5031908;28;20258;-66
2022/01/26 08:07:17;;;;;;;86.47;34.33;;;3.10;99.90;;;;;;5029328;28;20182;-65
2022/01/26 08:09:45;;;;;;;76.30;32.50;;;3.20;99.90;;;;;;5031805;28;20171;-65
2022/01/26 08:12:14;;;;;;;82.43;32.23;;;3.10;99.90;;;;;;5030477;28;20211;-65
2022/01/26 08:14:40;;;;;;;76.83;32.13;;;3.10;99.90;;;;;;5030603;28;20262;-65
2022/01/26 08:17:06;;;;;;;76.70;32.20;;;3.20;99.90;;;;;;5031914;28;20314;-65
2022/01/26 08:19:32;;;;;;;87.83;32.87;;;3.30;99.90;;;;;;5016352;28;20168;-66
2022/01/26 08:22:01;;;;;;;76.53;33.40;;;3.30;99.90;;;;;;5031097;28;20205;-65
2022/01/26 08:24:30;;;;;;;80.80;29.93;;;3.40;99.90;;;;;;5030029;28;20176;-66
2022/01/26 08:27:03;;;;;;;82.20;32.83;;;3.40;99.90;;;;;;5032533;28;20183;-66
2022/01/26 08:29:39;;;;;;;82.10;32.57;;;3.40;99.90;;;;;;5031423;28;20702;-66
2022/01/26 08:32:05;;;;;;;73.57;30.23;;;3.40;99.90;;;;;;5018280;28;20604;-66
2022/01/26 08:34:31;;;;;;;72.50;30.43;;;3.50;99.90;;;;;;5011241;28;20172;-66
2022/01/26 08:36:56;;;;;;;79.07;32.00;;;3.50;99.90;;;;;;5023895;28;20210;-66
2022/01/26 08:39:22;;;;;;;150.70;57.03;;;3.40;99.90;;;;;;5046999;28;20187;-66
2022/01/26 08:41:48;;;;;;;105.90;41.07;;;3.40;99.90;;;;;;5028285;28;20249;-66
2022/01/26 08:44:14;;;;;;;100.40;40.90;;;3.50;99.90;;;;;;5028609;28;20188;-66
2022/01/26 08:46:40;;;;;;;62.93;28.10;;;3.40;99.90;;;;;;5011528;28;20179;-65
2022/01/26 08:49:06;;;;;;;57.87;30.20;;;3.40;99.90;;;;;;5012688;28;20654;-66
2022/01/26 08:51:32;;;;;;;58.07;29.43;;;3.30;99.90;;;;;;5029927;28;20238;-66
2022/01/26 08:53:57;;;;;;;67.10;29.80;;;3.40;99.90;;;;;;5031012;28;20194;-66
2022/01/26 08:56:23;;;;;;;69.13;31.10;;;3.50;99.90;;;;;;5031312;28;20211;-66
2022/01/26 08:58:48;;;;;;;66.03;30.73;;;3.50;99.90;;;;;;5031086;28;20190;-67
2022/01/26 09:01:14;;;;;;;71.93;29.27;;;3.50;99.90;;;;;;5031158;28;20276;-67
2022/01/26 09:03:40;;;;;;;66.17;27.50;;;3.60;99.90;;;;;;5028982;28;20183;-66
2022/01/26 09:06:07;;;;;;;68.47;29.93;;;3.60;99.90;;;;;;5031479;28;20183;-65
2022/01/26 09:08:33;;;;;;;74.93;31.80;;;3.50;99.90;;;;;;5031428;28;20179;-65
2022/01/26 09:11:01;;;;;;;66.33;29.77;;;3.50;99.90;;;;;;5030957;28;20190;-65
2022/01/26 09:13:31;;;;;;;73.57;31.60;;;3.50;99.90;;;;;;5030912;28;20274;-65
2022/01/26 09:15:58;;;;;;;69.60;30.23;;;3.50;99.90;;;;;;5031142;28;20632;-65
2022/01/26 09:18:40;;;;;;;86.97;32.53;;;3.50;99.90;;;;;;5031037;28;20175;-65
2022/01/26 09:21:06;;;;;;;69.97;28.43;;;3.50;99.90;;;;;;5031133;28;20175;-65
2022/01/26 09:23:32;;;;;;;75.97;29.27;;;3.50;99.90;;;;;;5027442;28;20179;-65
2022/01/26 09:25:58;;;;;;;74.00;30.80;;;3.40;99.90;;;;;;5050525;28;20186;-65
2022/01/26 09:28:25;;;;;;;78.23;29.50;;;3.30;99.90;;;;;;5045717;28;20188;-65
2022/01/26 09:30:51;;;;;;;72.00;28.97;;;3.40;99.90;;;;;;5018103;28;20172;-65
2022/01/26 09:33:17;;;;;;;78.90;29.27;;;3.50;99.90;;;;;;5025834;28;20210;-65
2022/01/26 09:35:44;;;;;;;71.50;28.43;;;3.60;99.90;;;;;;5019456;28;20231;-65
2022/01/26 09:38:10;;;;;;;82.83;30.80;;;3.60;99.90;;;;;;5027525;28;20186;-65
2022/01/26 09:40:36;;;;;;;78.53;30.37;;;3.60;99.90;;;;;;5014995;28;20207;-65
2022/01/26 09:43:02;;;;;;;73.17;27.87;;;3.70;99.90;;;;;;5013205;28;20269;-65
2022/01/26 09:45:29;;;;;;;65.70;30.17;;;3.70;99.90;;;;;;5030267;28;20184;-65
2022/01/26 09:47:55;;;;;;;62.40;29.90;;;3.60;99.90;;;;;;5029574;28;20267;-65
2022/01/26 09:50:21;;;;;;;67.10;29.50;;;3.60;99.90;;;;;;5015038;28;20272;-65
2022/01/26 09:52:48;;;;;;;64.60;28.00;;;3.60;99.90;;;;;;5014698;28;20208;-65
2022/01/26 09:55:16;;;;;;;81.10;30.33;;;3.60;99.90;;;;;;5014827;28;20204;-66
2022/01/26 09:57:43;;;;;;;72.60;28.60;;;3.60;99.90;;;;;;5014658;28;20180;-65
2022/01/26 10:00:09;;;;;;;83.23;31.33;;;3.50;99.90;;;;;;5014926;28;20202;-65
2022/01/26 10:02:36;;;;;;;79.17;29.17;;;3.40;99.90;;;;;;5012794;28;20211;-65
2022/01/26 10:05:07;;;;;;;83.33;31.80;;;3.40;99.90;;;;;;5014668;28;20176;-65
2022/01/26 10:15:37;;;;;;;69.43;29.87;;;3.20;99.90;;;;;;5034493;28;20233;-66
2022/01/26 10:18:10;;;;;;;83.07;31.53;;;3.10;99.90;;;;;;5049637;28;20171;-66
2022/01/26 10:20:50;;;;;;;79.97;29.53;;;3.10;99.90;;;;;;5034162;28;20210;-66
2022/01/26 10:23:18;;;;;;;83.27;30.73;;;3.10;99.90;;;;;;5033886;28;20175;-66
2022/01/26 10:26:08;;;;;;;79.03;30.73;;;3.10;99.90;;;;;;5027491;28;20238;-65
2022/01/26 10:28:46;;;;;;;68.67;30.00;;;3.20;99.90;;;;;;5033329;28;20665;-66
2022/01/26 10:31:21;;;;;;;77.53;30.80;;;3.30;99.90;;;;;;5018110;28;20204;-66
2022/01/26 10:34:04;;;;;;;79.63;31.20;;;3.30;99.90;;;;;;5036377;28;20527;-67
2022/01/26 10:36:47;;;;;;;86.10;31.60;;;3.30;99.90;;;;;;5033595;28;20207;-65
2022/01/26 10:39:27;;;;;;;82.77;30.17;;;3.30;99.90;;;;;;5031020;28;20645;-66
2022/01/26 10:41:56;;;;;;;93.13;32.87;;;3.40;99.90;;;;;;5033900;28;20202;-66
2022/01/26 10:44:35;;;;;;;80.60;30.03;;;3.30;99.90;;;;;;5033437;28;20182;-67
2022/01/26 10:47:04;;;;;;;83.27;30.27;;;3.20;99.90;;;;;;5033712;28;20181;-66
2022/01/26 10:50:09;;;;;;;98.77;33.60;;;3.20;99.90;;;;;;5034001;28;20171;-65
2022/01/26 10:52:33;;;;;;;86.10;29.67;;;3.20;99.90;;;;;;5033196;28;20211;-66
2022/01/26 10:54:59;;;;;;;101.77;30.13;;;3.30;99.90;;;;;;5048877;28;20269;-65
2022/01/26 10:57:25;;;;;;;68.17;28.57;;;3.40;99.90;;;;;;5049169;28;20760;-65
2022/01/26 10:59:51;;;;;;;101.57;36.77;;;3.50;99.90;;;;;;5037847;28;20271;-66
2022/01/26 11:02:24;;;;;;;101.33;33.60;;;3.50;99.90;;;;;;5028522;28;20547;-65
2022/01/26 11:04:50;;;;;;;82.90;31.37;;;3.50;99.90;;;;;;5024279;28;20218;-65
2022/01/26 11:07:16;;;;;;;79.20;28.30;;;3.50;99.90;;;;;;5048738;28;20210;-65
2022/01/26 11:09:47;;;;;;;95.00;31.80;;;3.40;99.90;;;;;;5022214;28;20658;-65
2022/01/26 11:12:15;;;;;;;69.23;27.80;;;3.40;99.90;;;;;;5013016;28;20220;-66
2022/01/26 11:14:57;;;;;;;92.00;31.17;;;3.40;99.90;;;;;;5020653;28;20186;-66
2022/01/26 11:17:26;;;;;;;73.83;31.60;;;3.40;99.90;;;;;;5033016;28;20214;-66
2022/01/26 11:19:51;;;;;;;77.30;31.00;;;3.40;99.90;;;;;;5028246;28;20211;-65
2022/01/26 11:22:25;;;;;;;77.57;27.23;;;3.40;99.90;;;;;;5012834;28;20234;-65
2022/01/26 11:24:51;;;;;;;76.80;28.70;;;3.40;99.90;;;;;;5020978;28;20270;-66
2022/01/26 11:27:18;;;;;;;76.37;28.33;;;3.40;99.90;;;;;;5032934;28;20600;-66
2022/01/26 11:29:48;;;;;;;65.03;27.87;;;3.40;99.90;;;;;;5032266;28;20233;-66
2022/01/26 11:32:17;;;;;;;77.63;28.60;;;3.40;99.90;;;;;;5032473;28;20203;-67
2022/01/26 11:34:43;;;;;;;79.27;30.27;;;3.30;99.90;;;;;;5025528;28;20638;-67
2022/01/26 11:37:16;;;;;;;71.07;28.20;;;3.30;99.90;;;;;;5012875;28;20287;-66
2022/01/26 11:45:34;;;;;;;65.07;27.27;;;3.10;99.90;;;;;;5030680;28;20183;-67
2022/01/26 11:48:09;;;;;;;59.13;27.00;;;3.10;99.90;;;;;;5032448;28;20178;-66
2022/01/26 11:50:37;;;;;;;57.07;26.40;;;3.00;99.90;;;;;;5012917;28;20183;-66
2022/01/26 11:53:06;;;;;;;56.17;25.73;;;3.00;99.90;;;;;;5012597;28;20292;-66
2022/01/26 11:55:46;;;;;;;62.20;27.50;;;3.00;99.90;;;;;;5012134;28;20200;-66
2022/01/26 11:58:19;;;;;;;62.30;26.40;;;3.10;99.90;;;;;;5022236;28;20747;-66
2022/01/26 12:01:09;;;;;;;65.00;26.33;;;3.10;99.90;;;;;;5032142;28;20176;-66
2022/01/26 12:03:42;;;;;;;62.23;26.80;;;3.20;99.90;;;;;;5019058;28;20275;-66
2022/01/26 12:06:17;;;;;;;62.57;27.10;;;3.20;99.90;;;;;;5012971;28;20172;-65
2022/01/26 12:08:42;;;;;;;58.90;26.23;;;3.30;99.90;;;;;;5040074;28;20171;-66
2022/01/26 12:11:15;;;;;;;48.83;24.93;;;3.20;99.90;;;;;;5031679;28;20806;-66
2022/01/26 12:13:42;;;;;;;51.60;23.73;;;3.10;99.90;;;;;;5017452;28;20227;-66
2022/01/26 12:16:14;;;;;;;54.33;24.33;;;3.20;99.90;;;;;;5028314;28;20230;-66
2022/01/26 12:18:49;;;;;;;48.57;23.87;;;3.20;99.90;;;;;;5035245;28;20188;-66
2022/01/26 12:35:57;;;;;;;36.37;21.97;;;3.20;99.90;;;;;;5011756;28;20230;-65
2022/01/26 12:44:12;;;;;;;52.37;24.23;;;3.20;99.90;;;;;;4989481;28;20185;-65
2022/01/26 12:46:39;;;;;;;51.73;23.40;;;3.30;99.90;;;;;;5027664;28;20195;-65
2022/01/26 12:49:07;;;;;;;48.70;24.03;;;3.30;99.90;;;;;;5031556;28;20179;-65
2022/01/26 12:51:51;;;;;;;59.93;24.93;;;3.40;99.90;;;;;;5031297;28;20195;-65
2022/01/26 12:54:17;;;;;;;57.13;25.40;;;3.40;99.90;;;;;;5031752;28;20637;-65
2022/01/26 12:56:43;;;;;;;51.57;24.53;;;3.40;99.90;;;;;;5030645;28;20203;-64
2022/01/26 12:59:20;;;;;;;51.17;23.23;;;3.40;99.90;;;;;;5031256;28;20182;-65
2022/01/26 13:01:46;;;;;;;61.43;27.30;;;3.40;99.90;;;;;;5031098;28;20195;-65
2022/01/26 13:04:14;;;;;;;59.17;28.03;;;3.40;99.90;;;;;;5031190;28;20203;-66
2022/01/26 13:06:45;;;;;;;53.90;26.83;;;3.40;99.90;;;;;;5031272;28;20183;-65
2022/01/26 13:09:26;;;;;;;56.93;27.63;;;3.40;99.90;;;;;;5031230;28;20178;-66
2022/01/26 13:11:54;;;;;;;54.47;26.13;;;3.40;99.90;;;;;;5031172;28;20225;-65
2022/01/26 13:14:29;;;;;;;45.63;25.20;;;3.30;99.90;;;;;;5046612;28;20193;-65
2022/01/26 13:17:44;;;;;;;46.87;24.43;;;3.30;99.90;;;;;;5030837;28;20210;-66
2022/01/26 13:25:17;;;;;;;67.67;27.43;;;3.20;99.90;;;;;;5011343;28;20218;-66
2022/01/26 13:42:49;;;;;;;56.57;26.87;;;3.20;99.90;;;;;;5019908;28;20200;-66
2022/01/26 13:47:57;;;;;;;62.20;27.17;;;3.20;99.90;;;;;;5011188;28;20169;-67
2022/01/26 13:50:07;;;;;;;50.83;22.53;;;3.20;99.90;;;;;;5008600;28;20180;-65
2022/01/26 13:52:50;;;;;;;72.57;27.00;;;3.10;99.90;;;;;;5011506;28;20621;-66
2022/01/26 14:00:14;;;;;;;59.53;26.60;;;3.10;99.90;;;;;;5030906;28;20237;-65
2022/01/26 14:02:40;;;;;;;70.17;26.43;;;3.20;99.90;;;;;;5029098;28;20204;-66
2022/01/26 14:05:07;;;;;;;53.23;26.27;;;3.20;99.90;;;;;;5030915;28;20568;-66
2022/01/26 14:07:32;;;;;;;54.60;25.77;;;3.20;99.90;;;;;;5045887;28;20199;-66
2022/01/26 14:09:58;;;;;;;58.73;25.30;;;3.30;99.90;;;;;;5033850;28;20210;-65
2022/01/26 14:12:29;;;;;;;68.23;26.03;;;3.30;99.90;;;;;;5033946;28;20360;-65
2022/01/26 14:14:57;;;;;;;55.97;25.40;;;3.30;99.90;;;;;;5032678;28;20531;-66
2022/01/26 14:17:35;;;;;;;61.23;24.73;;;3.30;99.90;;;;;;5034179;28;20203;-65
2022/01/26 14:25:16;;;;;;;58.43;26.77;;;3.30;99.90;;;;;;5023316;28;20184;-66
2022/01/26 14:27:47;;;;;;;63.83;25.60;;;3.30;99.90;;;;;;5024060;28;20179;-64
2022/01/26 15:33:09;;;;;;;53.90;23.83;;;3.60;99.90;;;;;;5015355;28;20207;-65
2022/01/26 15:43:09;;;;;;;44.60;23.23;;;3.60;99.90;;;;;;5012215;28;20180;-66
2022/01/26 15:57:17;;;;;;;57.90;25.13;;;3.60;99.90;;;;;;5023560;28;20175;-66
2022/01/26 16:06:59;;;;;;;47.33;24.57;;;3.40;99.90;;;;;;5026729;28;20538;-65
2022/01/26 17:12:00;;;;;;;53.73;25.23;;;3.50;99.90;;;;;;4999878;28;20265;-65
2022/01/26 17:46:53;;;;;;;46.80;23.27;;;3.40;99.90;;;;;;5035290;28;20656;-67
2022/01/26 18:26:49;;;;;;;42.83;23.50;;;3.30;99.90;;;;;;5023742;28;20190;-66
2022/01/26 18:50:41;;;;;;;42.03;22.67;;;3.30;99.90;;;;;;5032041;28;20190;-66
2022/01/26 18:53:07;;;;;;;44.37;23.17;;;3.30;99.90;;;;;;5033318;28;20187;-66
2022/01/26 18:55:33;;;;;;;48.33;23.70;;;3.30;99.90;;;;;;5014544;28;20184;-66
2022/01/26 18:57:59;;;;;;;44.33;22.30;;;3.30;99.90;;;;;;5027031;28;20256;-66
2022/01/26 19:00:24;;;;;;;52.80;24.20;;;3.30;99.90;;;;;;5033680;28;20168;-66
2022/01/26 19:02:50;;;;;;;44.63;22.23;;;3.30;99.90;;;;;;5031423;28;20259;-66
2022/01/26 19:05:16;;;;;;;40.23;22.17;;;3.30;99.90;;;;;;5033473;28;20680;-65
2022/01/26 19:07:43;;;;;;;36.47;22.00;;;3.30;99.90;;;;;;5023073;28;20180;-66
2022/01/26 19:10:09;;;;;;;45.73;24.63;;;3.30;99.90;;;;;;5023899;28;20217;-66
2022/01/26 19:12:37;;;;;;;39.60;21.90;;;3.30;99.90;;;;;;5023970;28;20685;-66
2022/01/26 19:15:08;;;;;;;44.37;22.67;;;3.30;99.90;;;;;;5028600;28;20176;-66
2022/01/26 19:17:43;;;;;;;41.33;24.83;;;3.30;99.90;;;;;;5025087;28;20231;-66
2022/01/26 19:25:28;;;;;;;51.00;23.03;;;3.20;99.90;;;;;;5030087;28;20179;-66
2022/01/26 19:41:36;;;;;;;44.30;21.53;;;3.30;99.90;;;;;;5024319;28;20187;-66
2022/01/26 19:51:36;;;;;;;43.50;21.93;;;3.30;99.90;;;;;;5032586;28;20194;-64
2022/01/26 19:54:02;;;;;;;40.90;20.97;;;3.20;99.90;;;;;;5030645;28;20586;-64
2022/01/26 19:56:28;;;;;;;40.33;22.77;;;3.20;99.90;;;;;;5029803;28;20199;-65
2022/01/26 19:58:53;;;;;;;44.30;21.37;;;3.20;99.90;;;;;;5027884;28;20186;-65
2022/01/26 20:01:20;;;;;;;41.80;22.27;;;3.20;99.90;;;;;;5031080;28;20206;-65
2022/01/26 20:03:45;;;;;;;35.83;21.83;;;3.20;99.90;;;;;;5016895;28;20330;-64
2022/01/26 20:06:13;;;;;;;31.10;18.53;;;3.20;99.90;;;;;;5032425;28;20278;-64
2022/01/26 20:11:11;;;;;;;37.57;19.07;;;3.20;99.90;;;;;;5021789;28;20175;-64